Time;durP1;ratioP1;P1;durP2;ratioP2;P2;SDS_P1;SDS_P2;PMS_P1;PMS_P2;Temp;Humidity;BMP_temperature;BMP_pressure;BME280_temperature;BME280_humidity;BME280_pressure;Samples;Min_cycle;Max_cycle;Signal;HPM_P1;HPM_P2
2024/02/25 00:02:15;;;;;;;32.30;17.90;;;;;;;3.20;87.74;100805.03;104370;1268;61141;-66
2024/02/25 00:04:42;;;;;;;35.90;20.60;;;;;;;3.25;87.76;100803.91;104299;1268;138363;-67
2024/02/25 00:07:09;;;;;;;33.70;19.30;;;;;;;3.29;87.69;100810.23;104108;1268;67498;-67
2024/02/25 00:09:35;;;;;;;31.10;18.40;;;;;;;3.33;87.56;100808.52;104090;1265;138765;-62
2024/02/25 00:12:03;;;;;;;34.00;19.20;;;;;;;3.36;87.54;100810.08;104360;1267;61251;-62
2024/02/25 00:14:30;;;;;;;29.70;18.90;;;;;;;3.39;87.38;100811.42;108591;1263;59363;-63
2024/02/25 00:16:56;;;;;;;29.50;18.50;;;;;;;3.41;87.37;100812.27;108488;1262;138554;-67
2024/02/25 00:19:23;;;;;;;32.00;17.60;;;;;;;3.44;87.43;100815.56;108480;1263;65014;-67
2024/02/25 00:21:50;;;;;;;29.40;16.50;;;;;;;3.47;87.34;100815.20;108464;1263;139199;-67
2024/02/25 00:24:17;;;;;;;28.30;17.60;;;;;;;3.49;87.17;100817.89;108605;1263;59149;-67
2024/02/25 00:26:44;;;;;;;25.80;17.10;;;;;;;3.50;87.10;100816.39;108579;1264;59925;-67
2024/02/25 00:29:14;;;;;;;27.60;17.30;;;;;;;3.52;87.02;100813.38;108532;1262;138417;-67
2024/02/25 00:31:42;;;;;;;28.40;17.80;;;;;;;3.57;87.21;100813.98;108612;1262;65650;-67
2024/02/25 00:34:09;;;;;;;24.90;16.50;;;;;;;3.59;87.04;100817.74;108482;1262;138326;-67
2024/02/25 00:36:36;;;;;;;28.00;16.60;;;;;;;3.57;86.83;100820.23;108642;1268;59791;-67
2024/02/25 00:39:03;;;;;;;24.30;15.50;;;;;;;3.55;86.69;100821.70;108595;1264;58956;-66
2024/02/25 00:41:30;;;;;;;31.70;16.20;;;;;;;3.52;86.52;100819.80;108487;1266;138494;-67
2024/02/25 00:43:57;;;;;;;26.30;16.20;;;;;;;3.47;86.36;100826.30;108620;1263;65058;-67
2024/02/25 00:46:23;;;;;;;27.20;16.00;;;;;;;3.45;86.50;100825.80;108369;1263;138930;-67
2024/02/25 00:48:50;;;;;;;27.10;16.90;;;;;;;3.47;86.71;100818.27;108224;1263;60466;-67
2024/02/25 00:51:17;;;;;;;29.10;17.50;;;;;;;3.52;86.91;100814.75;107656;1265;140572;-67
2024/02/25 00:53:43;;;;;;;22.00;16.00;;;;;;;3.55;86.84;100811.97;107891;1263;73687;-67
2024/02/25 00:56:10;;;;;;;26.30;17.30;;;;;;;3.58;86.83;100809.90;108079;1266;66087;-67
2024/02/25 00:58:38;;;;;;;27.50;17.00;;;;;;;3.61;86.77;100808.45;104211;1267;138814;-67
2024/02/25 01:01:05;;;;;;;34.10;20.10;;;;;;;3.61;86.62;100808.46;104245;1264;61276;-68
2024/02/25 01:03:33;;;;;;;28.70;17.20;;;;;;;3.59;86.55;100811.48;104208;1267;139165;-66
2024/02/25 01:06:00;;;;;;;25.70;16.20;;;;;;;3.55;86.48;100817.35;104394;1264;76994;-63
2024/02/25 01:08:26;;;;;;;25.50;15.80;;;;;;;3.51;86.45;100821.65;104447;1269;66252;-62
2024/02/25 01:10:53;;;;;;;30.00;15.70;;;;;;;3.48;86.51;100825.81;104302;1263;138463;-62
2024/02/25 01:13:20;;;;;;;31.90;17.50;;;;;;;3.44;86.47;100827.48;104212;1272;61273;-62
2024/02/25 01:15:46;;;;;;;33.10;16.20;;;;;;;3.38;86.34;100830.69;104426;1268;138655;-63
2024/02/25 01:18:13;;;;;;;38.90;17.30;;;;;;;3.32;86.22;100827.54;103142;1267;72448;-63
2024/02/25 01:20:40;;;;;;;34.40;17.20;;;;;;;3.27;86.30;100823.13;106331;1266;66512;-63
2024/02/25 01:23:07;;;;;;;35.20;18.20;;;;;;;3.24;86.43;100816.19;104243;1268;139132;-63
2024/02/25 01:25:34;;;;;;;28.80;16.50;;;;;;;3.21;86.49;100813.39;104373;1268;61361;-63
2024/02/25 01:28:00;;;;;;;28.00;16.10;;;;;;;3.17;86.32;100812.84;104193;1268;138544;-63
2024/02/25 01:30:27;;;;;;;28.10;16.10;;;;;;;3.14;86.55;100806.11;104417;1266;75861;-63
2024/02/25 01:32:54;;;;;;;29.20;16.90;;;;;;;3.14;86.46;100809.70;104421;1268;65741;-63
2024/02/25 01:35:21;;;;;;;25.40;15.60;;;;;;;3.11;86.63;100804.02;104239;1263;138650;-63
2024/02/25 01:37:48;;;;;;;26.30;15.80;;;;;;;3.09;86.65;100806.85;104338;1267;61231;-62
2024/02/25 01:40:14;;;;;;;26.20;16.80;;;;;;;3.05;86.43;100811.51;104213;1267;138893;-62
2024/02/25 01:42:42;;;;;;;29.60;18.10;;;;;;;3.02;86.48;100812.86;104307;1269;75253;-62
2024/02/25 01:45:09;;;;;;;34.10;18.90;;;;;;;2.98;86.44;100813.70;104110;1265;138690;-63
2024/02/25 01:47:36;;;;;;;29.20;16.70;;;;;;;2.95;86.43;100819.40;108357;1267;73094;-63
2024/02/25 01:50:04;;;;;;;30.00;17.30;;;;;;;2.91;86.36;100819.90;108407;1267;59132;-62
2024/02/25 01:52:31;;;;;;;30.00;17.90;;;;;;;2.88;86.39;100825.27;108434;1268;138764;-63
2024/02/25 01:54:57;;;;;;;33.60;20.20;;;;;;;2.86;86.30;100828.45;108472;1266;73485;-63
2024/02/25 01:57:24;;;;;;;28.70;19.40;;;;;;;2.85;86.53;100828.59;108570;1263;138735;-63
2024/02/25 01:59:51;;;;;;;31.70;18.50;;;;;;;2.84;86.43;100827.83;108603;1264;73030;-63
2024/02/25 02:02:18;;;;;;;31.80;18.70;;;;;;;2.82;86.38;100825.92;108611;1266;58985;-63
2024/02/25 02:04:45;;;;;;;27.70;16.60;;;;;;;2.79;86.33;100826.63;108484;1262;138460;-62
2024/02/25 02:07:12;;;;;;;27.40;16.60;;;;;;;2.77;86.34;100833.45;108414;1270;75612;-62
2024/02/25 02:09:38;;;;;;;27.30;16.40;;;;;;;2.74;86.43;100836.60;108316;1264;138554;-63
2024/02/25 02:12:06;;;;;;;29.10;17.80;;;;;;;2.71;86.38;100840.08;108282;1264;71413;-63
2024/02/25 02:14:32;;;;;;;29.10;16.60;;;;;;;2.71;86.44;100840.08;108373;1263;58995;-62
2024/02/25 02:17:01;;;;;;;26.20;17.10;;;;;;;2.71;86.50;100839.20;108490;1263;138822;-63
2024/02/25 02:19:28;;;;;;;24.10;16.30;;;;;;;2.70;86.49;100837.27;108584;1267;73410;-63
2024/02/25 02:21:55;;;;;;;30.90;16.60;;;;;;;2.68;86.49;100837.65;108550;1264;138984;-63
2024/02/25 02:24:22;;;;;;;30.10;16.30;;;;;;;2.66;86.45;100831.97;108611;1263;72716;-64
2024/02/25 02:26:48;;;;;;;25.60;16.30;;;;;;;2.64;86.44;100828.38;108523;1263;59778;-64
2024/02/25 02:29:15;;;;;;;27.90;17.20;;;;;;;2.61;86.55;100822.48;108462;1264;138251;-64
2024/02/25 02:31:41;;;;;;;25.90;16.60;;;;;;;2.59;86.41;100823.42;105304;1268;72439;-63
2024/02/25 02:34:08;;;;;;;29.20;18.00;;;;;;;2.57;86.59;100821.38;104078;1264;138838;-63
2024/02/25 02:36:35;;;;;;;27.10;17.40;;;;;;;2.59;86.86;100825.48;103735;1264;72441;-63
2024/02/25 02:39:04;;;;;;;34.00;17.70;;;;;;;2.58;86.86;100827.34;104239;1264;61280;-63
2024/02/25 02:41:32;;;;;;;27.50;17.10;;;;;;;2.57;86.65;100826.04;108229;1263;138624;-63
2024/02/25 02:43:59;;;;;;;26.80;18.00;;;;;;;2.53;86.76;100829.66;108369;1264;75595;-63
2024/02/25 02:46:25;;;;;;;24.90;16.60;;;;;;;2.48;86.90;100827.14;108390;1263;138710;-63
2024/02/25 02:48:52;;;;;;;24.60;16.40;;;;;;;2.48;86.72;100826.78;108555;1263;70768;-63
2024/02/25 02:51:19;;;;;;;28.30;16.50;;;;;;;2.45;86.70;100832.66;107711;1264;139688;-63
2024/02/25 02:53:46;;;;;;;24.50;15.20;;;;;;;2.42;86.68;100827.10;104401;1267;61247;-63
2024/02/25 02:56:13;;;;;;;25.80;16.10;;;;;;;2.38;86.78;100827.05;104290;1268;76404;-63
2024/02/25 02:58:39;;;;;;;27.50;17.30;;;;;;;2.36;86.85;100824.17;104433;1268;138389;-63
2024/02/25 03:01:06;;;;;;;29.20;17.90;;;;;;;2.35;86.99;100822.90;104451;1264;73917;-63
2024/02/25 03:03:33;;;;;;;30.10;18.20;;;;;;;2.35;87.09;100820.11;104266;1266;139556;-63
2024/02/25 03:06:00;;;;;;;28.60;18.10;;;;;;;2.35;87.12;100814.61;104376;1266;61556;-63
2024/02/25 03:08:27;;;;;;;29.20;18.30;;;;;;;2.36;87.28;100817.08;104706;1266;75433;-63
2024/02/25 03:10:54;;;;;;;28.30;18.00;;;;;;;2.37;87.49;100815.05;104251;1266;138540;-63
2024/02/25 03:13:20;;;;;;;35.60;19.70;;;;;;;2.38;87.55;100819.11;104202;1264;74683;-63
2024/02/25 03:15:47;;;;;;;29.80;18.90;;;;;;;2.40;87.51;100820.38;104150;1269;139012;-63
2024/02/25 03:18:14;;;;;;;31.10;20.10;;;;;;;2.39;87.51;100819.86;104428;1264;61354;-63
2024/02/25 03:20:42;;;;;;;31.00;19.20;;;;;;;2.38;87.51;100820.64;104323;1269;74747;-63
2024/02/25 03:23:09;;;;;;;34.50;19.80;;;;;;;2.36;87.44;100822.96;106285;1265;138952;-63
2024/02/25 03:25:36;;;;;;;32.90;19.10;;;;;;;2.37;87.40;100831.48;108542;1264;73341;-63
2024/02/25 03:28:03;;;;;;;27.70;18.20;;;;;;;2.35;87.48;100835.00;106896;1264;139222;-63
2024/02/25 03:30:30;;;;;;;29.30;18.20;;;;;;;2.32;87.32;100833.65;104331;1267;61277;-63
2024/02/25 03:33:00;;;;;;;29.00;17.90;;;;;;;2.30;87.24;100838.89;104275;1262;73954;-63
2024/02/25 03:35:30;;;;;;;36.30;19.90;;;;;;;2.29;87.18;100839.99;104314;1267;138285;-63
2024/02/25 03:37:56;;;;;;;28.80;18.10;;;;;;;2.26;87.28;100836.55;108501;1264;73383;-64
2024/02/25 03:40:23;;;;;;;28.50;18.40;;;;;;;2.23;87.21;100833.77;108365;1263;139420;-64
2024/02/25 03:42:50;;;;;;;28.60;17.60;;;;;;;2.20;87.36;100835.53;108473;1264;59322;-63
2024/02/25 03:45:17;;;;;;;32.80;18.40;;;;;;;2.20;87.18;100835.50;108291;1263;139073;-63
2024/02/25 03:47:43;;;;;;;29.40;18.30;;;;;;;2.18;87.26;100833.33;107268;1263;65943;-63
2024/02/25 03:50:10;;;;;;;26.20;16.40;;;;;;;2.16;87.10;100835.28;104344;1268;73554;-63
2024/02/25 03:52:39;;;;;;;28.40;17.60;;;;;;;2.14;87.13;100831.34;104337;1267;138415;-63
2024/02/25 03:55:06;;;;;;;29.90;18.40;;;;;;;2.12;87.00;100829.67;108575;1264;61401;-63
2024/02/25 03:57:33;;;;;;;33.50;18.90;;;;;;;2.10;87.09;100831.65;108412;1265;138992;-64
2024/02/25 04:00:00;;;;;;;25.40;17.20;;;;;;;2.10;87.30;100825.05;105739;1264;64964;-64
2024/02/25 04:02:27;;;;;;;27.90;18.00;;;;;;;2.11;87.37;100823.38;104198;1267;73678;-63
2024/02/25 04:04:53;;;;;;;29.60;19.40;;;;;;;2.11;87.36;100822.70;104253;1268;138581;-63
2024/02/25 04:07:20;;;;;;;31.00;18.10;;;;;;;2.13;87.41;100826.62;104393;1269;61375;-63
2024/02/25 04:09:47;;;;;;;30.00;19.10;;;;;;;2.13;87.43;100829.60;104358;1264;138732;-63
2024/02/25 04:12:13;;;;;;;30.50;18.30;;;;;;;2.13;87.51;100833.06;104353;1270;66894;-63
2024/02/25 04:14:40;;;;;;;28.70;18.30;;;;;;;2.14;87.49;100835.85;104268;1266;73313;-62
2024/02/25 04:17:07;;;;;;;32.30;18.40;;;;;;;2.14;87.52;100833.62;103815;1267;138605;-63
2024/02/25 04:19:34;;;;;;;27.00;17.70;;;;;;;2.13;87.41;100829.94;104128;1267;61295;-63
2024/02/25 04:22:01;;;;;;;32.70;18.60;;;;;;;2.15;87.54;100833.31;103075;1263;139677;-63
2024/02/25 04:24:27;;;;;;;32.60;18.80;;;;;;;2.15;87.61;100834.86;104014;1265;65854;-63
2024/02/25 04:26:54;;;;;;;27.00;17.80;;;;;;;2.14;87.40;100831.53;104324;1270;73088;-63
2024/02/25 04:29:21;;;;;;;26.90;18.30;;;;;;;2.12;87.49;100830.18;104309;1267;139100;-62
2024/02/25 04:31:48;;;;;;;30.90;18.20;;;;;;;2.09;87.49;100834.21;104494;1264;61280;-62
2024/02/25 04:34:15;;;;;;;31.00;19.20;;;;;;;2.08;87.40;100831.52;104175;1267;138463;-63
2024/02/25 04:36:41;;;;;;;29.50;18.70;;;;;;;2.06;87.40;100825.88;104335;1266;67303;-63
2024/02/25 04:39:11;;;;;;;33.10;19.50;;;;;;;2.02;87.24;100828.38;104282;1274;71924;-62
2024/02/25 04:41:39;;;;;;;30.20;18.50;;;;;;;1.99;87.33;100825.92;104167;1264;61372;-62
2024/02/25 04:44:07;;;;;;;31.70;18.50;;;;;;;1.97;87.26;100824.63;104326;1264;61269;-62
2024/02/25 04:46:35;;;;;;;34.00;19.00;;;;;;;1.93;87.32;100827.84;103959;1264;138449;-63
2024/02/25 04:49:02;;;;;;;29.00;19.20;;;;;;;1.90;87.37;100833.05;103206;1263;64755;-62
2024/02/25 04:51:29;;;;;;;33.70;19.80;;;;;;;1.88;87.41;100839.48;104060;1262;139073;-63
2024/02/25 04:53:57;;;;;;;33.40;20.60;;;;;;;1.87;87.51;100841.48;104214;1270;61247;-63
2024/02/25 04:56:28;;;;;;;28.10;19.00;;;;;;;1.86;87.50;100847.13;104332;1267;61368;-63
2024/02/25 04:58:55;;;;;;;30.60;19.60;;;;;;;1.84;87.59;100852.58;104381;1263;139063;-62
2024/02/25 05:01:22;;;;;;;36.20;20.50;;;;;;;1.84;87.68;100856.66;104263;1264;67136;-63
2024/02/25 05:03:48;;;;;;;35.50;21.10;;;;;;;1.83;87.59;100856.11;103291;1263;138952;-67
2024/02/25 05:06:16;;;;;;;35.80;22.60;;;;;;;1.84;87.90;100859.98;103279;1264;61443;-67
2024/02/25 05:08:42;;;;;;;31.90;20.90;;;;;;;1.85;87.82;100856.41;103685;1263;61777;-67
2024/02/25 05:11:09;;;;;;;37.40;22.80;;;;;;;1.85;87.92;100858.50;104337;1264;138685;-63
2024/02/25 05:13:36;;;;;;;35.10;22.30;;;;;;;1.84;87.96;100859.16;104425;1267;65582;-66
2024/02/25 05:16:07;;;;;;;38.50;23.80;;;;;;;1.84;87.85;100857.02;104091;1264;138370;-66
2024/02/25 05:18:34;;;;;;;34.90;23.20;;;;;;;1.84;88.04;100861.88;108542;1262;59325;-66
2024/02/25 05:21:04;;;;;;;35.80;22.80;;;;;;;1.84;88.04;100863.79;108461;1266;61303;-66
2024/02/25 05:23:32;;;;;;;40.40;23.40;;;;;;;1.84;87.95;100865.84;108281;1263;138839;-64
2024/02/25 05:25:59;;;;;;;37.30;24.30;;;;;;;1.84;87.98;100869.14;108306;1264;65308;-63
2024/02/25 05:28:26;;;;;;;36.00;24.80;;;;;;;1.85;88.06;100866.28;108265;1262;138517;-63
2024/02/25 05:30:52;;;;;;;39.60;24.60;;;;;;;1.86;87.96;100866.88;108316;1262;60089;-63
2024/02/25 05:33:19;;;;;;;40.50;24.70;;;;;;;1.86;87.90;100865.49;108211;1262;139138;-64
2024/02/25 05:35:46;;;;;;;32.20;23.90;;;;;;;1.87;87.93;100872.45;108440;1262;75223;-64
2024/02/25 05:38:13;;;;;;;37.10;22.50;;;;;;;1.86;87.76;100877.21;108428;1263;67421;-63
2024/02/25 05:40:43;;;;;;;37.50;23.80;;;;;;;1.83;87.65;100877.07;108370;1262;138301;-63
2024/02/25 05:43:10;;;;;;;35.40;23.30;;;;;;;1.81;87.56;100873.48;108584;1262;59460;-63
2024/02/25 05:45:36;;;;;;;33.50;23.10;;;;;;;1.80;87.53;100878.25;108420;1262;139266;-63
2024/02/25 05:48:03;;;;;;;35.10;22.70;;;;;;;1.78;87.55;100878.13;108547;1262;74752;-64
2024/02/25 05:50:30;;;;;;;33.70;21.30;;;;;;;1.79;87.45;100880.23;105088;1263;66374;-63
2024/02/25 05:52:57;;;;;;;35.50;22.90;;;;;;;1.77;87.46;100888.27;104311;1263;138525;-63
2024/02/25 05:55:24;;;;;;;34.90;22.60;;;;;;;1.74;87.47;100886.90;104248;1270;61267;-64
2024/02/25 05:57:51;;;;;;;37.80;23.00;;;;;;;1.74;87.48;100884.48;104197;1263;140538;-63
2024/02/25 06:00:18;;;;;;;40.80;24.40;;;;;;;1.72;87.60;100882.28;104195;1264;73999;-64
2024/02/25 06:02:45;;;;;;;33.30;23.40;;;;;;;1.71;87.46;100881.32;108421;1263;68001;-63
2024/02/25 06:05:15;;;;;;;36.30;23.20;;;;;;;1.71;87.52;100878.36;108446;1262;138487;-64
2024/02/25 06:07:42;;;;;;;36.60;23.10;;;;;;;1.72;87.58;100878.46;108533;1263;59089;-64
2024/02/25 06:10:09;;;;;;;39.90;24.90;;;;;;;1.74;87.56;100877.05;106769;1264;139494;-64
2024/02/25 06:12:38;;;;;;;39.30;25.90;;;;;;;1.77;87.59;100873.02;104146;1264;74909;-64
2024/02/25 06:15:11;;;;;;;40.50;25.90;;;;;;;1.81;87.72;100884.50;108463;1263;66559;-64
2024/02/25 06:17:38;;;;;;;42.30;26.00;;;;;;;1.85;87.75;100881.70;108420;1262;138782;-65
2024/02/25 06:20:07;;;;;;;39.00;26.20;;;;;;;1.90;88.03;100882.19;108426;1264;59509;-64
2024/02/25 06:22:35;;;;;;;39.00;25.20;;;;;;;1.94;87.72;100882.77;108349;1263;138512;-65
2024/02/25 06:25:05;;;;;;;34.00;24.40;;;;;;;1.99;87.74;100879.92;108413;1262;73138;-64
2024/02/25 06:27:35;;;;;;;41.90;26.70;;;;;;;2.05;87.71;100885.88;108301;1264;138480;-63
2024/02/25 06:30:05;;;;;;;43.80;28.70;;;;;;;2.12;87.66;100886.79;108038;1262;72837;-64
2024/02/25 06:32:32;;;;;;;43.10;27.70;;;;;;;2.21;87.63;100884.72;108115;1262;59613;-64
2024/02/25 06:34:59;;;;;;;45.10;28.10;;;;;;;2.30;87.80;100887.17;108251;1262;139595;-64
2024/02/25 06:37:29;;;;;;;46.70;29.30;;;;;;;2.37;87.60;100891.75;108548;1262;73762;-63
2024/02/25 06:39:56;;;;;;;49.20;28.70;;;;;;;2.47;87.82;100894.97;106864;1267;138719;-66
2024/02/25 06:42:23;;;;;;;44.70;29.30;;;;;;;2.56;87.78;100895.69;104295;1263;73938;-66
2024/02/25 06:44:50;;;;;;;50.20;30.40;;;;;;;2.63;87.69;100898.67;104270;1262;61437;-67
2024/02/25 06:47:17;;;;;;;48.30;30.30;;;;;;;2.70;87.78;100895.81;104358;1267;138587;-67
2024/02/25 06:49:43;;;;;;;43.10;27.70;;;;;;;2.78;87.73;100900.57;104374;1267;72768;-65
2024/02/25 06:52:10;;;;;;;46.70;28.30;;;;;;;2.84;87.62;100894.86;104245;1267;138856;-65
2024/02/25 06:54:37;;;;;;;43.90;27.80;;;;;;;2.89;87.70;100897.80;104467;1263;73966;-65
2024/02/25 06:57:04;;;;;;;40.00;27.10;;;;;;;2.94;87.53;100895.48;104339;1263;61285;-65
2024/02/25 06:59:31;;;;;;;38.60;25.40;;;;;;;2.96;87.48;100896.59;105004;1262;138829;-65
2024/02/25 07:01:58;;;;;;;45.90;27.00;;;;;;;2.97;87.36;100895.30;104340;1267;74969;-65
2024/02/25 07:04:26;;;;;;;42.20;26.80;;;;;;;2.98;87.46;100891.02;104205;1266;138796;-65
2024/02/25 07:06:52;;;;;;;49.30;25.70;;;;;;;3.02;87.49;100890.00;104368;1267;71366;-64
2024/02/25 07:09:19;;;;;;;43.30;26.50;;;;;;;3.07;87.61;100890.13;104285;1263;140237;-64
2024/02/25 07:11:48;;;;;;;42.30;26.20;;;;;;;3.13;87.46;100887.33;104288;1264;61403;-65
2024/02/25 07:14:14;;;;;;;48.60;28.20;;;;;;;3.18;87.46;100883.10;104412;1268;74102;-64
2024/02/25 07:16:42;;;;;;;42.10;27.50;;;;;;;3.24;87.49;100882.25;104458;1263;138466;-64
2024/02/25 07:19:09;;;;;;;41.40;27.40;;;;;;;3.31;87.60;100880.02;106792;1264;72166;-64
2024/02/25 07:21:36;;;;;;;39.00;25.50;;;;;;;3.38;87.67;100879.40;103235;1268;139955;-64
2024/02/25 07:24:03;;;;;;;44.00;27.20;;;;;;;3.45;87.51;100876.98;104079;1267;61177;-64
2024/02/25 07:26:30;;;;;;;42.80;26.80;;;;;;;3.51;87.60;100875.81;104408;1262;74930;-64
2024/02/25 07:28:57;;;;;;;38.80;25.50;;;;;;;3.58;87.60;100871.14;104319;1267;138422;-65
2024/02/25 07:31:24;;;;;;;40.60;26.90;;;;;;;3.63;87.49;100870.36;104503;1263;72099;-65
2024/02/25 07:33:50;;;;;;;45.50;28.10;;;;;;;3.69;87.60;100872.63;104290;1266;138668;-65
2024/02/25 07:36:17;;;;;;;42.80;28.70;;;;;;;3.76;87.53;100874.39;104348;1267;61293;-66
2024/02/25 07:38:44;;;;;;;45.70;28.90;;;;;;;3.83;87.53;100874.59;104316;1267;75733;-66
2024/02/25 07:41:12;;;;;;;47.10;31.50;;;;;;;3.91;87.56;100872.20;108348;1264;138502;-66
2024/02/25 07:43:38;;;;;;;42.20;29.10;;;;;;;3.97;87.50;100868.92;104691;1263;72748;-66
2024/02/25 07:46:05;;;;;;;38.20;27.90;;;;;;;4.03;87.41;100868.20;104292;1267;138665;-65
2024/02/25 07:48:32;;;;;;;41.10;28.30;;;;;;;4.09;87.38;100859.13;104260;1267;61139;-65
2024/02/25 07:50:59;;;;;;;41.80;29.10;;;;;;;4.14;87.23;100859.73;108535;1262;74994;-65
2024/02/25 07:53:26;;;;;;;42.60;29.00;;;;;;;4.19;87.22;100859.45;108452;1262;139047;-67
2024/02/25 07:55:53;;;;;;;36.50;28.00;;;;;;;4.23;87.21;100856.92;108528;1263;72783;-67
2024/02/25 07:58:21;;;;;;;40.50;29.40;;;;;;;4.27;87.18;100849.81;108476;1262;137860;-67
2024/02/25 08:00:47;;;;;;;44.10;30.30;;;;;;;4.34;87.23;100847.72;105230;1263;61378;-66
2024/02/25 08:03:14;;;;;;;42.80;29.30;;;;;;;4.41;87.20;100841.64;104352;1263;139030;-66
2024/02/25 08:05:43;;;;;;;45.00;29.50;;;;;;;4.46;87.13;100834.63;108363;1263;66948;-69
2024/02/25 08:08:09;;;;;;;38.80;27.60;;;;;;;4.52;87.09;100834.05;108567;1262;72342;-67
2024/02/25 08:10:36;;;;;;;38.10;28.30;;;;;;;4.59;87.18;100827.09;106553;1263;139382;-67
2024/02/25 08:13:04;;;;;;;42.10;28.20;;;;;;;4.67;87.23;100824.04;104877;1268;61207;-66
2024/02/25 08:15:31;;;;;;;40.60;29.10;;;;;;;4.77;87.26;100827.81;104221;1263;138608;-67
2024/02/25 08:17:58;;;;;;;37.40;28.50;;;;;;;4.85;87.24;100826.83;103816;1265;67148;-67
2024/02/25 08:20:24;;;;;;;47.40;32.00;;;;;;;4.94;87.28;100831.42;104209;1263;73112;-66
2024/02/25 08:22:51;;;;;;;49.30;32.50;;;;;;;5.03;87.34;100829.61;104311;1267;138582;-67
2024/02/25 08:25:18;;;;;;;50.20;32.60;;;;;;;5.16;87.44;100833.04;104550;1266;61253;-66
2024/02/25 08:27:45;;;;;;;43.80;29.70;;;;;;;5.28;87.41;100826.80;104393;1264;139109;-66
2024/02/25 08:30:12;;;;;;;40.30;29.80;;;;;;;5.38;87.29;100824.48;104508;1266;66222;-66
2024/02/25 08:32:38;;;;;;;42.10;30.30;;;;;;;5.47;87.15;100830.64;108470;1262;73280;-66
2024/02/25 08:35:07;;;;;;;44.80;30.90;;;;;;;5.55;87.07;100832.42;108347;1266;138799;-66
2024/02/25 08:37:34;;;;;;;41.30;28.50;;;;;;;5.66;87.04;100832.41;108472;1262;59038;-66
2024/02/25 08:40:00;;;;;;;38.50;27.70;;;;;;;5.78;87.09;100830.02;107827;1263;139021;-66
2024/02/25 08:42:28;;;;;;;36.70;27.00;;;;;;;5.90;87.01;100834.03;105726;1265;67316;-65
2024/02/25 08:44:55;;;;;;;43.90;28.30;;;;;;;5.99;86.86;100834.29;104320;1264;72608;-66
2024/02/25 08:47:21;;;;;;;34.70;26.70;;;;;;;6.08;86.70;100829.11;104099;1269;139524;-65
2024/02/25 08:49:49;;;;;;;40.20;26.80;;;;;;;6.17;86.59;100818.72;104413;1263;61266;-66
2024/02/25 08:52:16;;;;;;;33.50;25.60;;;;;;;6.27;86.54;100806.25;104392;1266;138692;-66
2024/02/25 08:54:43;;;;;;;37.30;25.70;;;;;;;6.34;86.28;100798.54;104283;1265;66838;-66
2024/02/25 08:57:10;;;;;;;34.40;25.90;;;;;;;6.44;86.27;100795.64;104359;1267;73616;-66
2024/02/25 08:59:37;;;;;;;34.40;26.00;;;;;;;6.54;86.25;100790.29;108403;1262;137948;-68
2024/02/25 09:02:05;;;;;;;34.80;26.00;;;;;;;6.63;86.11;100793.96;108566;1262;60733;-66
2024/02/25 09:04:32;;;;;;;37.50;27.60;;;;;;;6.70;85.96;100798.45;108430;1263;137898;-66
2024/02/25 09:07:00;;;;;;;35.90;25.80;;;;;;;6.77;85.82;100797.36;107858;1262;65573;-67
2024/02/25 09:09:27;;;;;;;31.60;25.50;;;;;;;6.87;85.78;100798.42;108141;1262;139494;-63
2024/02/25 09:11:54;;;;;;;34.80;26.80;;;;;;;6.93;85.55;100797.13;108522;1262;59251;-61
2024/02/25 09:14:21;;;;;;;37.30;27.50;;;;;;;7.00;85.53;100798.61;108275;1262;59742;-63
2024/02/25 09:16:48;;;;;;;36.20;27.60;;;;;;;7.09;85.40;100795.11;108247;1262;138793;-62
2024/02/25 09:19:15;;;;;;;38.20;26.10;;;;;;;7.13;85.16;100785.02;108479;1262;64441;-63
2024/02/25 09:21:42;;;;;;;39.50;27.10;;;;;;;7.20;85.13;100781.61;107957;1262;140793;-63
2024/02/25 09:24:09;;;;;;;38.30;27.40;;;;;;;7.29;85.15;100776.38;107888;1264;59935;-62
2024/02/25 09:26:35;;;;;;;36.90;25.70;;;;;;;7.37;84.99;100774.77;105479;1263;61357;-62
2024/02/25 09:29:03;;;;;;;36.80;28.20;;;;;;;7.41;84.75;100776.14;104010;1262;138650;-64
2024/02/25 09:31:30;;;;;;;36.50;26.90;;;;;;;7.39;84.28;100768.40;103938;1262;67736;-71
2024/02/25 09:33:58;;;;;;;36.20;26.10;;;;;;;7.43;84.26;100769.39;103179;1263;139425;-66
2024/02/25 09:36:25;;;;;;;33.20;25.20;;;;;;;7.47;84.32;100765.35;103151;1267;61399;-65
2024/02/25 09:38:52;;;;;;;33.90;25.70;;;;;;;7.55;84.51;100767.05;103724;1263;62080;-66
2024/02/25 09:41:23;;;;;;;38.40;27.10;;;;;;;7.63;84.40;100765.77;108461;1262;137799;-66
2024/02/25 09:43:52;;;;;;;31.50;25.40;;;;;;;7.70;84.27;100764.13;108596;1262;66011;-67
2024/02/25 09:46:19;;;;;;;36.60;27.70;;;;;;;7.75;83.83;100762.23;108375;1262;138794;-66
2024/02/25 09:48:52;;;;;;;35.80;27.00;;;;;;;7.77;83.71;100758.11;108553;1262;59022;-67
2024/02/25 09:51:21;;;;;;;33.50;26.40;;;;;;;7.88;83.90;100756.39;104754;1263;139806;-67
2024/02/25 09:53:55;;;;;;;32.50;26.60;;;;;;;7.99;83.88;100750.48;105273;1263;75728;-67
2024/02/25 09:56:22;;;;;;;52.40;34.00;;;;;;;8.10;83.78;100748.42;104391;1267;66969;-67
2024/02/25 09:58:49;;;;;;;46.80;32.00;;;;;;;8.21;83.62;100748.10;104280;1266;138581;-67
2024/02/25 10:01:16;;;;;;;45.50;32.90;;;;;;;8.31;83.59;100745.81;104447;1263;61414;-68
2024/02/25 10:03:44;;;;;;;34.80;25.80;;;;;;;8.41;83.47;100745.13;104259;1268;139512;-68
2024/02/25 10:06:12;;;;;;;33.40;25.30;;;;;;;8.49;83.28;100747.50;105131;1262;75067;-68
2024/02/25 10:08:49;;;;;;;34.10;27.00;;;;;;;8.53;82.97;100744.14;104348;1262;67496;-68
2024/02/25 10:11:16;;;;;;;33.00;26.20;;;;;;;8.60;82.97;100740.52;104311;1263;138530;-68
2024/02/25 10:13:45;;;;;;;32.10;25.20;;;;;;;8.66;82.93;100739.69;107229;1264;61343;-68
2024/02/25 10:16:16;;;;;;;34.90;25.10;;;;;;;8.71;82.63;100736.16;104571;1267;139245;-68
2024/02/25 10:18:44;;;;;;;26.70;20.90;;;;;;;8.72;82.28;100730.41;104959;1267;74822;-68
2024/02/25 10:21:10;;;;;;;26.30;20.80;;;;;;;8.73;82.14;100730.98;104357;1263;66096;-68
2024/02/25 10:23:37;;;;;;;26.60;20.10;;;;;;;8.76;81.96;100728.45;104284;1266;139089;-68
2024/02/25 10:26:14;;;;;;;26.70;21.70;;;;;;;8.81;82.10;100725.46;106196;1263;61276;-68
2024/02/25 10:28:44;;;;;;;25.40;20.90;;;;;;;8.89;82.08;100721.18;104254;1263;138102;-68
2024/02/25 10:31:14;;;;;;;25.10;19.50;;;;;;;8.98;81.95;100724.40;104319;1263;73651;-68
2024/02/25 10:33:41;;;;;;;27.80;21.00;;;;;;;9.04;81.74;100722.85;104261;1267;138226;-68
2024/02/25 10:36:09;;;;;;;24.20;19.90;;;;;;;9.08;81.59;100721.76;104461;1267;72259;-68
2024/02/25 10:38:37;;;;;;;23.60;20.00;;;;;;;9.14;81.49;100719.14;104231;1262;61270;-68
2024/02/25 10:41:05;;;;;;;22.70;19.60;;;;;;;9.19;81.42;100708.61;104041;1263;335976;-67
2024/02/25 10:43:37;;;;;;;24.40;18.50;;;;;;;9.22;80.97;100705.35;104983;1262;74749;-67
2024/02/25 10:46:30;;;;;;;21.30;18.10;;;;;;;9.27;80.98;100703.93;104778;1264;139269;-67
2024/02/25 10:48:58;;;;;;;21.80;19.00;;;;;;;9.36;80.77;100702.09;104201;1262;73817;-67
2024/02/25 10:51:25;;;;;;;20.60;16.30;;;;;;;9.42;80.67;100692.47;104978;1263;138161;-67
2024/02/25 10:53:52;;;;;;;25.00;20.10;;;;;;;9.51;80.56;100692.17;104533;1262;61702;-66
2024/02/25 10:56:19;;;;;;;24.20;20.80;;;;;;;9.58;80.26;100684.50;104343;1266;74142;-65
2024/02/25 10:58:46;;;;;;;23.80;20.40;;;;;;;9.65;80.27;100681.88;104221;1267;137844;-65
2024/02/25 11:01:13;;;;;;;22.30;19.00;;;;;;;9.79;80.25;100676.12;104339;1264;72881;-65
2024/02/25 11:03:40;;;;;;;17.80;14.90;;;;;;;9.96;80.14;100668.34;104168;1263;138487;-65
2024/02/25 11:06:07;;;;;;;19.10;16.80;;;;;;;10.10;79.82;100666.94;104224;1267;61351;-66
2024/02/25 11:08:34;;;;;;;19.20;17.20;;;;;;;10.17;79.33;100659.77;104269;1264;75180;-65